Time;durP1;ratioP1;P1;durP2;ratioP2;P2;SDS_P1;SDS_P2;PMS_P1;PMS_P2;Temp;Humidity;BMP_temperature;BMP_pressure;BME280_temperature;BME280_humidity;BME280_pressure;Samples;Min_cycle;Max_cycle;Signal;HPM_P1;HPM_P2
2021/07/16 00:01:33;;;;;;;9.03;5.83;;;;;;;24.09;100.00;100943.31;5014972;28;20165;-70
2021/07/16 00:03:58;;;;;;;9.37;6.17;;;;;;;23.99;100.00;100942.78;5029821;28;20173;-67
2021/07/16 00:06:24;;;;;;;11.70;5.53;;;;;;;23.91;100.00;100941.00;5007783;28;20639;-68
2021/07/16 00:08:50;;;;;;;9.47;6.17;;;;;;;23.84;100.00;100945.44;5001939;28;20212;-68
2021/07/16 00:11:16;;;;;;;18.83;6.03;;;;;;;23.84;100.00;100945.44;5007067;28;20425;-68
2021/07/16 00:13:41;;;;;;;10.87;5.67;;;;;;;23.86;100.00;100939.88;5019280;28;20173;-69
2021/07/16 00:16:07;;;;;;;10.03;5.93;;;;;;;23.79;100.00;100946.00;5018547;28;20256;-68
2021/07/16 00:18:33;;;;;;;14.53;6.13;;;;;;;23.82;100.00;100943.97;5015877;28;20636;-69
2021/07/16 00:21:01;;;;;;;9.53;6.20;;;;;;;23.74;100.00;100940.34;5007918;28;20171;-69
2021/07/16 00:23:27;;;;;;;9.77;7.20;;;;;;;23.68;100.00;100942.94;5011439;28;20421;-68
2021/07/16 00:25:52;;;;;;;14.13;6.27;;;;;;;23.64;100.00;100937.09;5013333;28;20448;-69
2021/07/16 00:28:18;;;;;;;10.40;6.63;;;;;;;23.45;100.00;100942.97;5009915;28;20612;-68
2021/07/16 00:30:43;;;;;;;13.13;7.67;;;;;;;23.34;100.00;100938.84;5011434;28;20166;-69
2021/07/16 00:33:09;;;;;;;12.80;6.90;;;;;;;23.26;100.00;100942.44;5012660;28;20225;-68
2021/07/16 00:35:34;;;;;;;12.20;6.17;;;;;;;23.20;100.00;100947.66;5011847;28;20202;-69
2021/07/16 00:38:01;;;;;;;10.20;6.73;;;;;;;23.16;100.00;100935.66;5010640;28;20253;-70
2021/07/16 00:40:26;;;;;;;17.37;6.57;;;;;;;23.15;100.00;100939.34;5009534;28;20169;-70
2021/07/16 00:42:52;;;;;;;15.30;6.27;;;;;;;23.11;100.00;100938.03;5013034;28;20413;-69
2021/07/16 00:45:18;;;;;;;10.90;5.77;;;;;;;23.03;100.00;100949.66;5016416;28;20265;-68
2021/07/16 00:47:45;;;;;;;18.20;6.40;;;;;;;22.90;100.00;100949.44;5010819;28;20178;-71
2021/07/16 00:50:15;;;;;;;9.80;6.57;;;;;;;22.86;100.00;100951.63;4998971;28;20679;-69
2021/07/16 00:52:41;;;;;;;8.60;5.97;;;;;;;22.86;100.00;100948.94;5004941;28;20534;-71
2021/07/16 00:55:08;;;;;;;9.60;7.20;;;;;;;22.84;100.00;100952.78;5010609;28;20524;-70
2021/07/16 00:57:34;;;;;;;10.00;6.57;;;;;;;22.80;100.00;100944.25;5013209;28;20456;-69
2021/07/16 01:00:00;;;;;;;10.83;6.80;;;;;;;22.74;100.00;100944.09;5010133;28;20394;-68
2021/07/16 01:02:27;;;;;;;9.80;7.07;;;;;;;22.67;100.00;100938.63;5011548;28;20408;-69
2021/07/16 01:04:53;;;;;;;10.17;7.10;;;;;;;22.70;100.00;100936.44;5002375;28;20863;-70
2021/07/16 01:07:19;;;;;;;9.87;6.07;;;;;;;22.69;100.00;100931.25;5004791;28;20414;-67
2021/07/16 01:09:50;;;;;;;14.30;6.77;;;;;;;22.57;100.00;100932.66;4995704;28;20433;-70
2021/07/16 01:12:16;;;;;;;10.97;6.40;;;;;;;22.58;100.00;100937.84;5010833;28;20481;-69
2021/07/16 01:14:41;;;;;;;8.77;6.57;;;;;;;22.48;100.00;100933.72;5016621;28;20449;-71
2021/07/16 01:17:07;;;;;;;14.10;7.00;;;;;;;22.58;100.00;100931.66;5007190;28;20418;-68
2021/07/16 01:19:41;;;;;;;9.13;6.23;;;;;;;22.60;100.00;100929.66;5003037;28;20612;-69
2021/07/16 01:22:09;;;;;;;15.87;7.57;;;;;;;22.53;100.00;100931.38;5015091;28;20185;-69
2021/07/16 01:24:35;;;;;;;11.60;6.60;;;;;;;22.46;100.00;100927.72;5016600;28;20429;-71
2021/07/16 01:27:00;;;;;;;10.00;7.07;;;;;;;22.43;100.00;100929.72;5009075;28;20496;-68
2021/07/16 01:29:26;;;;;;;12.93;6.83;;;;;;;22.40;100.00;100927.41;5011572;28;20416;-70
2021/07/16 01:31:52;;;;;;;17.87;6.90;;;;;;;22.39;100.00;100933.75;5015059;28;20588;-69
2021/07/16 01:34:19;;;;;;;20.80;7.73;;;;;;;22.35;100.00;100935.09;5018528;28;20300;-68
2021/07/16 01:36:45;;;;;;;10.30;7.40;;;;;;;22.22;100.00;100924.16;5010422;28;20173;-70
2021/07/16 01:39:10;;;;;;;15.83;7.20;;;;;;;22.21;100.00;100926.97;5009474;28;20413;-69
2021/07/16 01:41:36;;;;;;;16.63;6.20;;;;;;;22.28;100.00;100925.28;5010810;28;20177;-69
2021/07/16 01:44:04;;;;;;;13.87;6.67;;;;;;;22.18;100.00;100930.84;5014720;28;20220;-67
2021/07/16 01:46:30;;;;;;;13.17;7.00;;;;;;;22.24;100.00;100924.78;5021098;28;20197;-67
2021/07/16 01:48:55;;;;;;;13.83;6.87;;;;;;;22.15;100.00;100928.53;5010096;28;20500;-68
2021/07/16 01:51:21;;;;;;;13.97;7.17;;;;;;;22.19;100.00;100927.16;5025790;28;20186;-69
2021/07/16 01:53:46;;;;;;;12.20;6.83;;;;;;;22.12;100.00;100921.66;5010264;28;20782;-69
2021/07/16 01:56:12;;;;;;;11.53;8.73;;;;;;;22.05;100.00;100926.00;5010513;28;20166;-68
2021/07/16 01:58:38;;;;;;;14.83;8.40;;;;;;;22.01;100.00;100923.84;5010295;28;20206;-69
2021/07/16 02:01:10;;;;;;;13.23;8.03;;;;;;;21.99;100.00;100932.06;5023759;28;20429;-68
2021/07/16 02:03:35;;;;;;;13.57;8.10;;;;;;;22.09;100.00;100921.19;5012538;28;20166;-69
2021/07/16 02:06:01;;;;;;;15.07;9.13;;;;;;;21.94;100.00;100922.88;5014198;28;20412;-70
2021/07/16 02:08:26;;;;;;;10.30;7.50;;;;;;;21.93;100.00;100924.72;5013976;28;20236;-70
2021/07/16 02:10:54;;;;;;;11.50;8.10;;;;;;;21.88;100.00;100922.53;5012850;28;20288;-68
2021/07/16 02:13:21;;;;;;;9.97;7.00;;;;;;;21.92;100.00;100924.88;5016170;28;20190;-69
2021/07/16 02:15:48;;;;;;;12.17;7.43;;;;;;;21.92;100.00;100927.56;5014354;28;20441;-70
2021/07/16 02:18:15;;;;;;;9.83;7.80;;;;;;;21.94;100.00;100917.50;5013407;28;20413;-70
2021/07/16 02:20:42;;;;;;;9.20;7.33;;;;;;;21.93;100.00;100927.38;5019305;28;20511;-70
2021/07/16 02:23:14;;;;;;;10.83;7.27;;;;;;;21.90;100.00;100927.72;5020705;28;20416;-69
2021/07/16 02:25:40;;;;;;;9.80;8.23;;;;;;;21.84;100.00;100934.59;5013719;28;20413;-69
2021/07/16 02:28:12;;;;;;;10.97;7.60;;;;;;;21.83;100.00;100938.25;5013688;28;20833;-68
2021/07/16 02:30:37;;;;;;;9.40;7.70;;;;;;;21.77;100.00;100938.97;5015104;28;20170;-69
2021/07/16 02:33:04;;;;;;;11.70;8.37;;;;;;;21.76;100.00;100941.78;5019373;28;20535;-68
2021/07/16 02:35:31;;;;;;;9.23;7.27;;;;;;;21.70;100.00;100943.31;5013142;28;20166;-69
2021/07/16 02:37:57;;;;;;;9.70;8.17;;;;;;;21.67;100.00;100950.84;5013380;28;20420;-70
2021/07/16 02:40:23;;;;;;;16.60;9.03;;;;;;;21.74;100.00;100946.47;5013643;28;20497;-69
2021/07/16 02:42:48;;;;;;;11.63;8.17;;;;;;;21.76;100.00;100956.00;5018119;28;20420;-69
2021/07/16 02:45:17;;;;;;;12.10;8.23;;;;;;;21.76;100.00;100957.84;5029922;28;20165;-69
2021/07/16 02:47:43;;;;;;;10.97;7.97;;;;;;;21.72;100.00;100945.81;5015909;28;20181;-67
2021/07/16 02:50:14;;;;;;;15.13;7.80;;;;;;;21.65;100.00;100960.88;5013286;28;20445;-70
2021/07/16 02:52:43;;;;;;;10.47;7.60;;;;;;;21.63;100.00;100957.56;5011380;28;20205;-71
2021/07/16 02:55:10;;;;;;;11.30;7.70;;;;;;;21.72;100.00;100954.69;5023279;28;20926;-70
2021/07/16 02:57:36;;;;;;;12.10;8.60;;;;;;;21.79;100.00;100957.53;5012794;28;20408;-69
2021/07/16 03:00:04;;;;;;;11.17;8.07;;;;;;;21.74;100.00;100963.38;5013480;28;20401;-67
2021/07/16 03:02:30;;;;;;;9.60;8.23;;;;;;;21.76;100.00;100965.88;5013533;28;20181;-69
2021/07/16 03:04:58;;;;;;;13.10;8.60;;;;;;;21.91;100.00;100971.34;5023597;28;20417;-68
2021/07/16 03:07:24;;;;;;;13.40;7.53;;;;;;;21.91;100.00;100971.34;5012770;28;20181;-68
2021/07/16 03:09:49;;;;;;;14.37;8.40;;;;;;;22.01;100.00;100966.66;5012011;28;20515;-70
2021/07/16 03:12:15;;;;;;;11.40;7.70;;;;;;;21.99;100.00;100955.28;5012847;28;20202;-68
2021/07/16 03:14:40;;;;;;;12.60;8.17;;;;;;;22.07;100.00;100955.28;5014843;28;20170;-68
2021/07/16 03:17:07;;;;;;;11.23;8.23;;;;;;;22.15;100.00;100955.28;5012389;28;20173;-70
2021/07/16 03:19:33;;;;;;;13.43;7.47;;;;;;;22.21;100.00;100951.06;5018737;28;20170;-69
2021/07/16 03:21:59;;;;;;;8.70;7.03;;;;;;;22.21;100.00;100954.56;5013502;28;20420;-70
2021/07/16 03:24:25;;;;;;;16.03;7.70;;;;;;;22.32;100.00;100940.81;5013030;28;20406;-69
2021/07/16 03:26:50;;;;;;;9.83;7.90;;;;;;;22.35;100.00;100944.97;5026210;28;20784;-70
2021/07/16 03:29:16;;;;;;;14.10;8.47;;;;;;;22.40;100.00;100946.13;5012156;28;20170;-68
2021/07/16 03:31:41;;;;;;;12.47;9.50;;;;;;;22.59;100.00;100944.84;5012021;28;20214;-69
2021/07/16 03:34:07;;;;;;;9.53;8.17;;;;;;;22.62;100.00;100946.38;5013624;28;20209;-69
2021/07/16 03:36:33;;;;;;;10.30;9.10;;;;;;;22.80;100.00;100946.91;5018323;28;20299;-68
2021/07/16 03:38:58;;;;;;;10.63;7.50;;;;;;;22.97;100.00;100948.53;5018577;28;20192;-68
2021/07/16 03:41:23;;;;;;;13.50;10.17;;;;;;;23.08;100.00;100955.31;5014885;28;20241;-69
2021/07/16 03:43:49;;;;;;;15.87;10.53;;;;;;;23.23;100.00;100952.69;5020192;28;20162;-68
2021/07/16 03:46:18;;;;;;;13.07;10.40;;;;;;;23.35;100.00;100956.63;5019485;28;20170;-69
2021/07/16 03:48:44;;;;;;;11.33;9.70;;;;;;;23.36;100.00;100958.28;5019191;28;20706;-69
2021/07/16 03:51:10;;;;;;;12.27;8.93;;;;;;;23.32;100.00;100948.91;5014300;28;20483;-69
2021/07/16 03:53:35;;;;;;;22.50;10.80;;;;;;;23.38;100.00;100961.63;5016022;28;20196;-70
2021/07/16 03:56:01;;;;;;;14.90;10.20;;;;;;;23.47;100.00;100963.22;5014046;28;20790;-69
2021/07/16 03:58:26;;;;;;;17.33;11.03;;;;;;;23.59;100.00;100963.63;5019476;28;20248;-69
2021/07/16 04:00:54;;;;;;;16.00;9.90;;;;;;;23.59;100.00;100952.06;5016074;28;20583;-68
2021/07/16 04:03:39;;;;;;;14.03;9.97;;;;;;;23.57;100.00;100960.25;5034468;28;20161;-68
2021/07/16 04:06:05;;;;;;;13.47;9.23;;;;;;;23.64;100.00;100971.97;5016423;28;21019;-69
2021/07/16 04:08:34;;;;;;;12.53;10.13;;;;;;;23.69;100.00;100980.31;5015416;28;20420;-69
2021/07/16 04:11:00;;;;;;;16.53;10.73;;;;;;;23.74;100.00;100971.72;5015934;28;20536;-68
2021/07/16 04:13:25;;;;;;;13.80;10.80;;;;;;;23.86;100.00;100964.88;5021635;28;20440;-69
2021/07/16 04:15:51;;;;;;;10.20;9.00;;;;;;;23.99;100.00;100981.19;5016975;28;20166;-69
2021/07/16 04:18:16;;;;;;;18.80;10.70;;;;;;;24.06;100.00;100976.75;5016432;28;20154;-68
2021/07/16 04:20:42;;;;;;;17.57;10.33;;;;;;;24.09;100.00;100967.47;5016096;28;20328;-68
2021/07/16 04:23:08;;;;;;;13.83;9.80;;;;;;;23.98;100.00;100976.84;5011348;28;20175;-68
2021/07/16 04:25:34;;;;;;;16.90;10.10;;;;;;;24.02;100.00;100970.06;5016908;28;20198;-68
2021/07/16 04:28:02;;;;;;;25.73;12.13;;;;;;;24.02;100.00;100974.59;5015286;28;20413;-69
2021/07/16 04:30:29;;;;;;;20.50;10.40;;;;;;;23.91;100.00;100973.22;5016782;28;20408;-68
2021/07/16 04:32:58;;;;;;;17.60;9.57;;;;;;;23.77;100.00;100966.81;5017189;28;20471;-69
2021/07/16 04:35:24;;;;;;;17.70;9.50;;;;;;;23.70;100.00;100975.78;5013978;28;20420;-68
2021/07/16 04:37:50;;;;;;;11.80;8.00;;;;;;;23.71;100.00;100977.44;5015575;28;20413;-67
2021/07/16 04:40:20;;;;;;;13.00;7.93;;;;;;;23.68;100.00;100984.03;5016498;28;20174;-70
2021/07/16 04:42:46;;;;;;;14.07;7.67;;;;;;;23.73;100.00;100980.81;5029955;28;20170;-70
2021/07/16 04:45:15;;;;;;;15.20;9.57;;;;;;;23.70;100.00;100987.34;5015899;28;20419;-68
2021/07/16 04:47:41;;;;;;;15.20;8.37;;;;;;;23.82;100.00;100982.38;5015666;28;20512;-71
2021/07/16 04:50:08;;;;;;;18.53;9.63;;;;;;;23.91;100.00;100985.81;5016411;28;20466;-70
2021/07/16 04:52:44;;;;;;;13.80;9.63;;;;;;;24.03;100.00;100989.69;5016723;28;20567;-68
2021/07/16 04:55:11;;;;;;;11.90;7.63;;;;;;;24.02;100.00;100988.88;5020602;28;20482;-69
2021/07/16 04:57:37;;;;;;;13.10;7.97;;;;;;;24.04;100.00;100986.00;5014807;28;20503;-68
2021/07/16 05:00:08;;;;;;;15.50;8.57;;;;;;;24.06;100.00;100994.72;5015133;28;20453;-69
2021/07/16 05:02:33;;;;;;;11.33;7.63;;;;;;;24.03;100.00;100995.06;5011872;28;20491;-69
2021/07/16 05:04:59;;;;;;;15.13;10.43;;;;;;;24.04;100.00;101000.28;5013672;28;20752;-68
2021/07/16 05:07:25;;;;;;;10.33;8.40;;;;;;;24.17;100.00;100993.41;5016037;28;20598;-68
2021/07/16 05:09:50;;;;;;;13.93;7.70;;;;;;;24.16;100.00;101006.00;5012095;28;20636;-68
2021/07/16 05:12:16;;;;;;;10.40;7.80;;;;;;;24.28;100.00;100998.34;5015252;28;20277;-69
2021/07/16 05:14:42;;;;;;;31.07;9.20;;;;;;;24.34;100.00;100994.94;5014128;28;20181;-69
2021/07/16 05:17:08;;;;;;;11.37;7.50;;;;;;;24.46;100.00;100998.81;5016272;28;20659;-70
2021/07/16 05:19:33;;;;;;;8.87;7.33;;;;;;;24.48;100.00;100991.38;5009852;28;20405;-69
2021/07/16 05:22:00;;;;;;;12.83;8.13;;;;;;;24.52;100.00;100981.94;5011050;28;20178;-70
2021/07/16 05:24:26;;;;;;;13.33;8.30;;;;;;;24.59;100.00;100985.53;5028696;28;20162;-70
2021/07/16 05:26:52;;;;;;;12.83;9.33;;;;;;;24.69;100.00;100990.63;5020634;28;20805;-70
2021/07/16 05:29:18;;;;;;;16.70;9.40;;;;;;;24.73;100.00;100983.84;5010822;28;20417;-68
2021/07/16 05:31:43;;;;;;;14.10;7.83;;;;;;;24.82;100.00;100982.72;5009712;28;20166;-69
2021/07/16 05:34:09;;;;;;;10.83;8.87;;;;;;;24.90;100.00;100971.84;5009726;28;20216;-68
2021/07/16 05:36:35;;;;;;;13.43;9.00;;;;;;;24.97;100.00;100973.75;5019337;28;20227;-67
2021/07/16 05:39:04;;;;;;;17.73;8.83;;;;;;;24.97;100.00;100968.38;5014349;28;20962;-70
2021/07/16 05:41:30;;;;;;;16.60;8.70;;;;;;;24.96;100.00;100972.09;5021919;28;20157;-71
2021/07/16 05:43:56;;;;;;;20.43;9.83;;;;;;;25.09;100.00;100970.41;5018206;28;20397;-67
2021/07/16 05:46:22;;;;;;;13.30;10.67;;;;;;;25.22;100.00;100969.69;5016442;28;20292;-73
2021/07/16 05:48:48;;;;;;;21.37;11.37;;;;;;;25.26;100.00;100973.69;5013997;28;20185;-70
2021/07/16 05:51:13;;;;;;;29.00;10.30;;;;;;;25.28;100.00;100977.00;5013970;28;20795;-72
2021/07/16 05:53:39;;;;;;;18.17;9.30;;;;;;;25.38;100.00;100979.34;5013957;28;20675;-70
2021/07/16 05:56:05;;;;;;;17.30;9.90;;;;;;;25.50;100.00;100975.13;5012510;28;20178;-73
2021/07/16 05:58:30;;;;;;;16.23;11.27;;;;;;;25.53;100.00;100979.28;5013326;28;20178;-68
2021/07/16 06:00:56;;;;;;;17.07;9.33;;;;;;;25.61;100.00;100985.34;5013431;28;20798;-68
2021/07/16 06:03:22;;;;;;;12.97;8.90;;;;;;;25.69;100.00;100982.53;5013705;28;20170;-71
2021/07/16 06:05:48;;;;;;;13.03;8.80;;;;;;;25.76;100.00;100973.69;5012585;28;20162;-67
2021/07/16 06:08:13;;;;;;;13.57;10.10;;;;;;;25.81;100.00;100969.38;5013677;28;20451;-72
2021/07/16 06:10:39;;;;;;;18.10;8.63;;;;;;;25.91;100.00;100966.34;5014179;28;20474;-68
2021/07/16 06:13:07;;;;;;;15.50;10.67;;;;;;;25.96;100.00;100956.63;5013307;28;20296;-70
2021/07/16 06:15:34;;;;;;;19.60;9.20;;;;;;;25.99;100.00;100963.47;5014810;28;20503;-69
2021/07/16 06:17:59;;;;;;;13.97;8.77;;;;;;;25.93;100.00;100957.06;5013674;28;20472;-68
2021/07/16 06:20:25;;;;;;;42.50;37.10;;;;;;;26.01;100.00;100947.97;5005230;28;20930;-71
2021/07/16 06:22:51;;;;;;;17.23;8.97;;;;;;;26.21;100.00;100951.59;5013115;28;20632;-72
2021/07/16 06:25:20;;;;;;;14.90;11.27;;;;;;;26.22;100.00;100945.19;5014366;28;20182;-72
2021/07/16 06:27:46;;;;;;;25.77;15.63;;;;;;;26.38;100.00;100949.41;5021139;28;20404;-72
2021/07/16 06:30:13;;;;;;;26.70;14.50;;;;;;;26.43;100.00;100954.22;5014346;28;20412;-71
2021/07/16 06:32:39;;;;;;;27.07;17.03;;;;;;;26.50;100.00;100952.38;5015345;28;20445;-69
2021/07/16 06:35:06;;;;;;;19.43;12.03;;;;;;;26.66;100.00;100952.00;4972485;28;20442;-73
2021/07/16 06:37:31;;;;;;;20.10;10.27;;;;;;;26.70;100.00;100950.59;4972399;28;20199;-71
2021/07/16 06:39:57;;;;;;;15.47;9.80;;;;;;;26.71;100.00;100952.25;4972403;28;20466;-74
2021/07/16 06:42:24;;;;;;;15.27;8.60;;;;;;;26.76;100.00;100949.78;4975500;28;20175;-72
2021/07/16 06:44:50;;;;;;;31.57;11.80;;;;;;;26.71;100.00;100954.94;4983198;28;20168;-70
2021/07/16 06:47:16;;;;;;;17.83;10.10;;;;;;;26.74;100.00;100951.81;4967915;28;20445;-69
2021/07/16 06:49:41;;;;;;;14.73;9.10;;;;;;;26.76;100.00;100946.25;4972266;28;20411;-70
2021/07/16 06:52:08;;;;;;;16.13;9.70;;;;;;;26.79;100.00;100953.91;4979121;28;20769;-72
2021/07/16 06:54:33;;;;;;;13.57;9.00;;;;;;;26.81;100.00;100949.97;4976111;28;20175;-70
2021/07/16 06:56:59;;;;;;;11.77;8.40;;;;;;;26.78;100.00;100952.25;4980098;28;20473;-69
2021/07/16 06:59:25;;;;;;;12.90;10.90;;;;;;;26.82;100.00;100946.25;4976018;28;20219;-71
2021/07/16 07:01:50;;;;;;;13.13;8.70;;;;;;;26.93;100.00;100947.53;4978094;28;20240;-72
2021/07/16 07:04:16;;;;;;;13.23;7.80;;;;;;;27.02;100.00;100946.28;4978091;28;20176;-71
2021/07/16 07:06:43;;;;;;;17.07;7.67;;;;;;;27.04;100.00;100946.09;4978652;28;20171;-71
2021/07/16 07:09:09;;;;;;;10.30;7.00;;;;;;;27.07;100.00;100956.50;4977782;28;20208;-69
2021/07/16 07:11:35;;;;;;;11.20;7.60;;;;;;;26.99;100.00;100946.72;4976932;28;20896;-73
2021/07/16 07:14:00;;;;;;;15.23;7.73;;;;;;;27.12;100.00;100953.19;4972870;28;20171;-67
2021/07/16 07:16:26;;;;;;;14.73;7.77;;;;;;;27.16;100.00;100957.97;4972276;28;20403;-72
2021/07/16 07:18:51;;;;;;;12.17;7.17;;;;;;;27.23;100.00;100953.41;4972327;28;20210;-68
2021/07/16 07:21:17;;;;;;;10.73;6.20;;;;;;;27.19;100.00;100954.00;4972492;28;20188;-72
2021/07/16 07:23:42;;;;;;;17.90;8.00;;;;;;;27.14;100.00;100948.44;4972416;28;20210;-71
2021/07/16 07:26:09;;;;;;;12.33;5.93;;;;;;;27.17;100.00;100948.81;4972018;28;20194;-71
2021/07/16 07:28:36;;;;;;;8.37;4.50;;;;;;;27.34;100.00;100947.38;4971971;28;20171;-72
2021/07/16 07:31:02;;;;;;;14.27;6.47;;;;;;;27.46;100.00;100946.75;4971118;28;20843;-69
2021/07/16 07:33:28;;;;;;;8.17;5.90;;;;;;;27.54;100.00;100946.56;4943686;28;1192454;-72
2021/07/16 07:35:56;;;;;;;13.50;5.20;;;;;;;27.62;100.00;100952.56;5010991;28;20202;-72
2021/07/16 07:38:22;;;;;;;12.60;7.07;;;;;;;27.71;100.00;100942.41;5010948;28;20173;-67
2021/07/16 07:40:47;;;;;;;8.67;6.50;;;;;;;27.65;100.00;100945.91;5011920;28;20398;-70
2021/07/16 07:43:12;;;;;;;10.63;6.67;;;;;;;27.15;100.00;100956.31;5011253;28;20413;-68
2021/07/16 07:45:38;;;;;;;9.13;6.73;;;;;;;27.18;100.00;100953.19;5010826;28;20515;-72
2021/07/16 07:48:04;;;;;;;13.53;7.00;;;;;;;27.34;100.00;100946.53;5011231;28;20222;-71
2021/07/16 07:50:30;;;;;;;13.00;6.43;;;;;;;27.45;100.00;100959.44;5011194;28;20175;-68
2021/07/16 07:52:55;;;;;;;9.17;6.70;;;;;;;27.27;100.00;100953.81;5011080;28;20471;-69
2021/07/16 07:55:23;;;;;;;11.23;7.37;;;;;;;27.30;100.00;100956.13;5011585;28;20640;-70
2021/07/16 07:57:51;;;;;;;13.23;6.87;;;;;;;27.36;100.00;100960.69;5009892;28;20162;-69
2021/07/16 08:00:25;;;;;;;16.40;6.80;;;;;;;27.42;100.00;100954.44;5009473;28;20652;-69
2021/07/16 08:02:50;;;;;;;14.00;6.67;;;;;;;27.36;100.00;100950.72;5008608;28;20925;-69
2021/07/16 08:05:16;;;;;;;10.00;6.57;;;;;;;27.60;100.00;100954.66;5010629;28;20989;-70
2021/07/16 08:07:42;;;;;;;7.07;4.63;;;;;;;27.79;100.00;100949.44;5012097;28;20174;-69
2021/07/16 08:10:11;;;;;;;14.40;5.70;;;;;;;27.81;100.00;100953.63;5022478;28;20208;-70
2021/07/16 08:12:38;;;;;;;12.87;5.47;;;;;;;27.93;100.00;100943.81;5012068;28;20493;-72
2021/07/16 08:15:06;;;;;;;11.03;4.77;;;;;;;28.01;100.00;100941.94;5005834;28;20865;-72
2021/07/16 08:17:32;;;;;;;6.53;3.80;;;;;;;28.07;100.00;100936.50;5011395;28;20520;-70
2021/07/16 08:19:57;;;;;;;7.37;3.53;;;;;;;28.18;100.00;100929.59;5011396;28;20520;-72
2021/07/16 08:22:23;;;;;;;9.57;3.30;;;;;;;28.32;100.00;100914.19;5011154;28;20674;-68
2021/07/16 08:24:48;;;;;;;11.93;4.33;;;;;;;28.38;100.00;100922.28;5011542;28;20320;-71
2021/07/16 08:27:15;;;;;;;10.37;3.90;;;;;;;28.48;100.00;100916.41;5013335;28;20161;-68
2021/07/16 08:29:41;;;;;;;14.23;4.37;;;;;;;28.49;100.00;100904.56;5010473;28;20167;-70
2021/07/16 08:32:07;;;;;;;7.03;4.17;;;;;;;28.71;100.00;100902.31;5010543;28;20524;-68
2021/07/16 08:34:34;;;;;;;8.87;3.37;;;;;;;28.85;100.00;100903.06;5010536;28;20453;-70
2021/07/16 08:37:00;;;;;;;5.90;2.90;;;;;;;28.89;100.00;100893.47;5011736;28;20418;-69
2021/07/16 08:39:26;;;;;;;8.10;5.30;;;;;;;28.99;100.00;100902.78;5011081;28;20485;-67
2021/07/16 08:41:52;;;;;;;10.43;3.90;;;;;;;29.05;100.00;100900.25;5009518;28;20178;-69
2021/07/16 08:44:18;;;;;;;8.00;4.67;;;;;;;28.99;100.00;100896.56;5008090;28;20424;-70
2021/07/16 08:46:47;;;;;;;8.53;3.63;;;;;;;29.14;100.00;100890.81;5020273;28;20417;-72
2021/07/16 08:49:16;;;;;;;10.37;4.60;;;;;;;29.28;100.00;100887.78;5013502;28;20335;-68
2021/07/16 08:51:42;;;;;;;19.90;5.40;;;;;;;29.37;100.00;100899.16;5009751;28;20417;-73
2021/07/16 08:54:15;;;;;;;5.50;3.37;;;;;;;29.53;100.00;100892.34;5011307;28;20417;-69
2021/07/16 08:56:41;;;;;;;8.37;3.93;;;;;;;29.52;100.00;100888.00;5009450;28;20421;-68
2021/07/16 08:59:08;;;;;;;8.13;3.40;;;;;;;29.55;100.00;100890.28;5009135;28;20417;-71
2021/07/16 09:01:40;;;;;;;10.33;3.90;;;;;;;29.64;100.00;100888.09;5010729;28;20269;-68
2021/07/16 09:04:08;;;;;;;7.57;3.70;;;;;;;29.77;100.00;100883.34;5009783;28;20923;-71
2021/07/16 09:06:53;;;;;;;11.33;3.77;;;;;;;29.84;100.00;100888.69;5009625;28;20413;-71
2021/07/16 09:09:22;;;;;;;12.87;3.83;;;;;;;29.84;100.00;100885.97;5015512;28;20844;-69
2021/07/16 09:11:50;;;;;;;12.83;4.47;;;;;;;29.93;100.00;100884.66;5009984;28;20405;-71
2021/07/16 09:14:23;;;;;;;12.90;4.17;;;;;;;29.98;100.00;100878.53;5011254;28;20471;-72
2021/07/16 09:17:09;;;;;;;16.10;5.63;;;;;;;30.10;100.00;100877.56;5010418;28;20413;-70
2021/07/16 09:19:36;;;;;;;10.60;4.10;;;;;;;30.22;100.00;100882.22;5009862;28;20424;-70
2021/07/16 09:22:08;;;;;;;12.60;7.20;;;;;;;30.39;100.00;100881.38;5010076;28;20437;-67
2021/07/16 09:24:35;;;;;;;11.93;4.10;;;;;;;30.41;100.00;100883.84;5009964;28;20931;-69
2021/07/16 09:27:02;;;;;;;15.73;4.67;;;;;;;30.50;100.00;100877.03;5041810;28;20417;-71
2021/07/16 09:29:33;;;;;;;7.57;4.23;;;;;;;30.33;100.00;100876.03;5009761;28;20444;-70
2021/07/16 09:32:07;;;;;;;10.90;4.63;;;;;;;30.34;100.00;100872.25;5009883;28;20778;-69
2021/07/16 09:34:34;;;;;;;12.43;4.40;;;;;;;30.36;100.00;100876.38;5009006;28;20457;-68
2021/07/16 09:37:09;;;;;;;9.17;4.07;;;;;;;30.37;100.00;100871.78;5023352;28;20396;-68
2021/07/16 09:39:36;;;;;;;13.10;4.13;;;;;;;30.30;100.00;100866.44;5009511;28;20447;-69
2021/07/16 09:42:03;;;;;;;7.87;3.90;;;;;;;30.24;100.00;100866.56;5021313;28;20791;-69
2021/07/16 09:44:34;;;;;;;7.20;4.40;;;;;;;30.26;100.00;100859.03;5009509;28;20418;-69
2021/07/16 09:47:17;;;;;;;13.37;6.80;;;;;;;30.33;100.00;100855.16;5009851;28;20883;-68
2021/07/16 09:50:02;;;;;;;15.27;4.90;;;;;;;30.37;100.00;100847.38;5009588;28;20403;-69
2021/07/16 09:52:28;;;;;;;14.90;3.90;;;;;;;30.49;100.00;100845.53;5009063;28;20453;-68
2021/07/16 09:55:09;;;;;;;10.97;4.20;;;;;;;30.53;100.00;100841.31;5014567;28;20424;-70
2021/07/16 09:57:42;;;;;;;10.73;4.50;;;;;;;30.67;100.00;100844.66;5013200;28;20409;-68
2021/07/16 10:00:12;;;;;;;13.83;4.70;;;;;;;30.81;100.00;100837.97;5009335;28;20416;-70
2021/07/16 10:02:38;;;;;;;10.00;5.47;;;;;;;30.94;100.00;100839.66;5011708;28;20777;-71
2021/07/16 10:05:06;;;;;;;9.17;5.00;;;;;;;31.06;100.00;100832.34;5008790;28;20935;-69
2021/07/16 10:07:32;;;;;;;23.47;14.40;;;;;;;31.08;100.00;100840.25;5008799;28;20273;-67
2021/07/16 10:09:58;;;;;;;30.83;19.03;;;;;;;31.18;100.00;100835.06;5009395;28;20401;-71
2021/07/16 10:12:24;;;;;;;11.50;5.97;;;;;;;31.56;100.00;100823.72;5009164;28;20464;-73
2021/07/16 10:14:50;;;;;;;9.17;4.90;;;;;;;32.50;100.00;100818.00;5009792;28;20158;-70
2021/07/16 10:17:15;;;;;;;12.03;5.33;;;;;;;32.94;100.00;100820.91;5010077;28;20443;-71
2021/07/16 10:19:41;;;;;;;10.87;6.07;;;;;;;32.94;100.00;100816.28;5009326;28;20401;-70
2021/07/16 10:22:07;;;;;;;10.80;5.23;;;;;;;32.64;100.00;100811.13;5009255;28;20159;-71
2021/07/16 10:24:34;;;;;;;9.80;4.67;;;;;;;32.65;100.00;100807.38;5010686;28;20226;-71
2021/07/16 10:27:02;;;;;;;14.67;8.73;;;;;;;32.87;100.00;100812.06;5011810;28;20166;-72
2021/07/16 10:29:42;;;;;;;9.03;5.40;;;;;;;32.48;100.00;100815.50;5012672;28;20401;-70
2021/07/16 10:32:08;;;;;;;8.50;5.30;;;;;;;32.28;100.00;100806.97;5012291;28;20871;-71
2021/07/16 10:34:40;;;;;;;9.00;6.20;;;;;;;32.12;100.00;100816.75;5018675;28;20494;-70
2021/07/16 10:37:13;;;;;;;10.70;4.87;;;;;;;31.87;100.00;100813.50;5012839;28;20409;-68
2021/07/16 10:39:46;;;;;;;11.50;5.30;;;;;;;31.83;100.00;100810.47;5012448;28;20448;-70
2021/07/16 10:42:39;;;;;;;10.23;6.73;;;;;;;31.81;100.00;100819.91;5012898;28;20892;-67
2021/07/16 10:45:09;;;;;;;21.87;7.13;;;;;;;31.83;100.00;100815.06;5002078;28;20451;-71
2021/07/16 10:47:47;;;;;;;17.63;6.20;;;;;;;31.90;100.00;100813.03;5012380;28;20513;-69
2021/07/16 10:50:26;;;;;;;9.30;5.87;;;;;;;31.86;100.00;100814.56;5011366;28;20424;-68
2021/07/16 10:52:52;;;;;;;12.33;5.83;;;;;;;31.81;100.00;100812.56;5012360;28;20455;-68
2021/07/16 10:55:31;;;;;;;15.97;6.73;;;;;;;31.74;100.00;100809.13;5012476;28;20421;-70
2021/07/16 10:58:15;;;;;;;9.97;5.30;;;;;;;31.69;100.00;100817.19;5012815;28;20158;-71
2021/07/16 11:00:40;;;;;;;15.70;5.57;;;;;;;31.69;100.00;100811.75;5012298;28;20406;-72
2021/07/16 11:03:10;;;;;;;10.33;5.47;;;;;;;31.72;100.00;100814.81;5013510;28;20758;-70
2021/07/16 11:05:39;;;;;;;10.40;4.63;;;;;;;31.64;100.00;100811.66;5012459;28;20166;-69
2021/07/16 11:08:28;;;;;;;10.60;5.10;;;;;;;31.71;100.00;100810.44;5012371;28;20804;-68
2021/07/16 11:11:00;;;;;;;8.00;5.50;;;;;;;31.64;100.00;100823.34;5008384;28;20418;-71